CKH3 weather

Debden Airport
Debden, Saskatchewan, Canada

Public forecast

Using degrees Celsius for public forecast. Weather courtesy of forecast.io.

METAR (pilot weather report)

Closest report is Prince Albert Glass Field, 47.4 nm (87.8 km) ESE. Retrieved 2019/04/20 00:00 UTC (23 minutes ago):

CYPA 200000Z 30012KT 15SM FEW060 BKN130 BKN250 16/M00 A2958 RMK SC1AC6CI1 SC TR SLP031 DENSITY ALT 2300FT

TAF (pilot weather forecast)

Closest forecast is Prince Albert Glass Field, 47.4 nm (87.8 km) ESE. Retrieved 2019/04/20 01:39 UTC (0 seconds ago):

TAF CYPA 200038Z 2001/2013 30010KT P6SM FEW060 SCT250 RMK NXT FCST BY 200700Z